Victory — WDB9496 — position and weather

sailwx.info

Track history (hours):
 
Tides and Currents Weather Stations Pressure Air Temp Water Temp Dewpoint Dewpoint Depression Visibility Wind Speed Wind Dir Waves Ship Positions

Victory

Owner: XENIOS, GEORGE, WILMINGTON, CA. More information available from US FCC via Universal Licensing System and Coast Guard Vessel Documentation Center.

Last reported at 2018-Jul-22 23:10 UTC. Time now 2018-Jul-23 04:16 UTC.
Position N 33°43' W 118°11'.

Length 5 m; draft 2 m.

Type: Passenger vessel. MMSI: 366977270.

Date/timePositionNaut miles runAvg speedWind from/ knotsBaromVisibWave heightAir tempDewpointWater temp
2018-Jul-22 23:10N 33°43' W 118°11'1 7.9
2018-Jul-22 23:00N 33°43' W 118°10'4 7.4
2018-Jul-22 22:30N 33°40' W 118°07'1 1.3
2018-Jul-22 22:00N 33°39' W 118°07'0 0.0
2018-Jul-22 21:30N 33°39' W 118°07'1 1.4
2018-Jul-22 21:00N 33°39' W 118°07'4 7.3
2018-Jul-22 20:30N 33°39' W 118°12'0 0.6
2018-Jul-22 20:00N 33°38' W 118°12'0 0.4
2018-Jul-22 19:30N 33°38' W 118°12'1 2.0
2018-Jul-22 19:00N 33°38' W 118°10'3 4.9
2018-Jul-22 18:30N 33°36' W 118°11'0 0.6
2018-Jul-22 18:00N 33°36' W 118°11'0 0.3
2018-Jul-22 17:30N 33°36' W 118°11'0 0.0
2018-Jul-22 17:00N 33°36' W 118°11'0 0.0
2018-Jul-22 16:30N 33°36' W 118°11'0 0.0
2018-Jul-22 16:00N 33°36' W 118°11'1 1.3
2018-Jul-22 14:59N 33°37' W 118°11'4 7.9
2018-Jul-22 14:30N 33°41' W 118°11'3 5.7
2018-Jul-22 14:00N 33°43' W 118°10'3 0.2
2018-Jul-22 00:14N 33°46' W 118°13'1 3.6
2018-Jul-22 00:00N 33°46' W 118°13'3 6.6
2018-Jul-21 23:30N 33°43' W 118°11'3 5.6
2018-Jul-21 23:00N 33°41' W 118°13'0 0.0
2018-Jul-21 22:30N 33°41' W 118°13'1 2.7
2018-Jul-21 22:00N 33°40' W 118°12'1 1.4
2018-Jul-21 21:30N 33°40' W 118°13'1 1.2
2018-Jul-21 21:00N 33°40' W 118°14'1 2.6
2018-Jul-21 20:30N 33°39' W 118°12'1 1.8
2018-Jul-21 20:00N 33°38' W 118°12'2 3.4
2018-Jul-21 19:30N 33°37' W 118°12'0 0.0
2018-Jul-21 19:00N 33°37' W 118°12'0 0.8
2018-Jul-21 18:30N 33°36' W 118°11'0 0.3
2018-Jul-21 18:00N 33°36' W 118°11'0 0.7
2018-Jul-21 17:29N 33°36' W 118°11'0 0.3
2018-Jul-21 17:00N 33°36' W 118°11'0 0.0
2018-Jul-21 16:30N 33°36' W 118°11'0 0.1
2018-Jul-21 16:00N 33°36' W 118°11'3 5.8
2018-Jul-21 15:30N 33°38' W 118°10'4 8.3
2018-Jul-21 15:00N 33°42' W 118°09'1 2.6
2018-Jul-21 14:30N 33°44' W 118°09'4 4.1
2018-Jul-21 13:30N 33°46' W 118°13'0 0.0
2018-Jul-21 13:00N 33°46' W 118°13'0 0.0
2018-Jul-21 00:43N 33°46' W 118°13'0 0.0
2018-Jul-21 00:30N 33°46' W 118°13'0 0.0
2018-Jul-21 00:00N 33°46' W 118°13'3 5.1
2018-Jul-20 23:30N 33°44' W 118°12'4 7.2
2018-Jul-20 23:00N 33°40' W 118°12'1 1.3
2018-Jul-20 22:30N 33°40' W 118°12'0 0.0
2018-Jul-20 22:00N 33°40' W 118°12'0 0.7
2018-Jul-20 21:30N 33°40' W 118°12'1 1.9
2018-Jul-20 21:00N 33°40' W 118°14'1 1.5
2018-Jul-20 20:30N 33°41' W 118°13'0 0.0
2018-Jul-20 20:00N 33°41' W 118°13'1 1.9
2018-Jul-20 19:30N 33°40' W 118°14'0 0.6
2018-Jul-20 19:00N 33°40' W 118°13'0 0.0
2018-Jul-20 18:30N 33°40' W 118°13'3 6.2
2018-Jul-20 18:00N 33°37' W 118°12'0 0.6
2018-Jul-20 17:30N 33°37' W 118°12'1 2.1
2018-Jul-20 17:01N 33°36' W 118°11'0 0.0
2018-Jul-20 16:30N 33°36' W 118°11'0 0.0
2018-Jul-20 15:59N 33°36' W 118°11'0 0.1
2018-Jul-20 15:30N 33°36' W 118°11'1 1.9
2018-Jul-20 15:00N 33°36' W 118°11'4 8.2
2018-Jul-20 14:30N 33°40' W 118°09'3 6.4
2018-Jul-20 14:00N 33°44' W 118°08'3 5.5
2018-Jul-20 13:30N 33°44' W 118°12'3 5.1
2018-Jul-20 13:00N 33°46' W 118°13'6 0.4
2018-Jul-19 22:01N 33°40' W 118°14'0 6.0
2018-Jul-19 22:00N 33°40' W 118°14'1 1.4
2018-Jul-19 21:30N 33°40' W 118°14'0 0.0
2018-Jul-19 21:00N 33°40' W 118°14'0 0.0
2018-Jul-19 20:30N 33°40' W 118°14'0 0.0
2018-Jul-19 20:00N 33°40' W 118°14'0 0.0
2018-Jul-19 19:30N 33°40' W 118°14'0 0.0
2018-Jul-19 19:00N 33°40' W 118°14'0 0.0
2018-Jul-19 18:30N 33°40' W 118°14'2 5.1
2018-Jul-19 18:00N 33°37' W 118°12'2 4.1
2018-Jul-19 17:30N 33°36' W 118°11'0 0.1
2018-Jul-19 17:00N 33°36' W 118°11'0 0.0
2018-Jul-19 16:30N 33°36' W 118°11'0 0.0
2018-Jul-19 16:00N 33°36' W 118°11'0 0.1
2018-Jul-19 15:30N 33°36' W 118°11'2 4.9
2018-Jul-19 15:00N 33°38' W 118°10'6 5.9
2018-Jul-19 14:00N 33°44' W 118°09'4 8.1
2018-Jul-19 13:30N 33°45' W 118°13'1 2.5
2018-Jul-19 13:00N 33°46' W 118°13'4 0.3
2018-Jul-18 22:59N 33°43' W 118°14'2 5.0
2018-Jul-18 22:30N 33°41' W 118°14'1 1.9
2018-Jul-18 22:01N 33°40' W 118°14'0 0.0
2018-Jul-18 21:31N 33°40' W 118°14'0 0.0
2018-Jul-18 21:00N 33°40' W 118°14'0 0.0
2018-Jul-18 20:30N 33°40' W 118°14'0 0.0
2018-Jul-18 20:00N 33°40' W 118°14'0 0.3
2018-Jul-18 19:31N 33°40' W 118°14'1 2.7
2018-Jul-18 19:00N 33°39' W 118°12'0 0.0
2018-Jul-18 18:30N 33°39' W 118°12'1 2.4
2018-Jul-18 18:00N 33°38' W 118°12'0 0.1
2018-Jul-18 17:30N 33°38' W 118°12'3 5.6
2018-Jul-18 17:01N 33°36' W 118°11'0 0.0
2018-Jul-18 16:30N 33°36' W 118°11'0 0.0
2018-Jul-18 16:00N 33°36' W 118°11'0 0.1
2018-Jul-18 15:30N 33°36' W 118°11'2 4.4
2018-Jul-18 15:00N 33°38' W 118°10'4 8.8
2018-Jul-18 14:30N 33°42' W 118°11'4 3.7
2018-Jul-18 13:30N 33°45' W 118°13'2 0.1
2018-Jul-17 22:42N 33°44' W 118°13'1 6.6
2018-Jul-17 22:30N 33°43' W 118°15'2 4.9
2018-Jul-17 22:00N 33°40' W 118°15'0 0.0
2018-Jul-17 21:30N 33°40' W 118°15'1 2.3
2018-Jul-17 20:59N 33°41' W 118°14'1 2.0
2018-Jul-17 20:30N 33°40' W 118°14'0 0.0
2018-Jul-17 19:59N 33°40' W 118°14'0 0.0
2018-Jul-17 19:30N 33°40' W 118°14'0 0.0
2018-Jul-17 19:00N 33°40' W 118°14'0 0.0
2018-Jul-17 18:30N 33°40' W 118°14'3 6.3
2018-Jul-17 18:00N 33°37' W 118°12'1 2.9
2018-Jul-17 17:30N 33°36' W 118°11'0 0.0
2018-Jul-17 17:00N 33°36' W 118°11'0 0.0
2018-Jul-17 16:29N 33°36' W 118°11'0 0.1
2018-Jul-17 16:00N 33°36' W 118°11'0 0.1
2018-Jul-17 15:30N 33°36' W 118°11'2 4.1
2018-Jul-17 15:00N 33°37' W 118°10'4 8.8
2018-Jul-17 14:30N 33°42' W 118°09'2 4.1
2018-Jul-17 14:00N 33°44' W 118°08'4 7.7
2018-Jul-17 13:30N 33°45' W 118°13'3 0.2
2018-Jul-16 23:30N 33°42' W 118°14'3 5.1
2018-Jul-16 23:01N 33°40' W 118°14'0 0.0
2018-Jul-16 22:30N 33°40' W 118°14'0 0.0
2018-Jul-16 22:00N 33°40' W 118°14'0 0.0
2018-Jul-16 21:26N 33°40' W 118°14'0 0.1
2018-Jul-16 21:00N 33°40' W 118°14'2 4.3
2018-Jul-16 20:30N 33°38' W 118°12'2 3.9
2018-Jul-16 20:00N 33°37' W 118°10'2 3.7
2018-Jul-16 19:30N 33°36' W 118°08'2 4.6
2018-Jul-16 19:00N 33°36' W 118°11'0 0.0
2018-Jul-16 18:30N 33°36' W 118°11'0 0.0
2018-Jul-16 18:00N 33°36' W 118°11'0 0.0
2018-Jul-16 17:30N 33°36' W 118°11'0 0.0
2018-Jul-16 17:00N 33°36' W 118°11'1 1.5
2018-Jul-16 16:30N 33°36' W 118°11'2 3.8
2018-Jul-16 16:00N 33°38' W 118°12'0 0.0
2018-Jul-16 15:30N 33°38' W 118°12'2 3.5
2018-Jul-16 15:00N 33°39' W 118°10'4 8.2
2018-Jul-16 14:30N 33°43' W 118°08'2 3.5
2018-Jul-16 14:00N 33°44' W 118°10'3 0.2
2018-Jul-15 23:50N 33°46' W 118°13'6 3.8
2018-Jul-15 22:22N 33°40' W 118°13'0 0.3
2018-Jul-15 22:00N 33°40' W 118°13'1 1.1
2018-Jul-15 21:30N 33°41' W 118°13'0 0.0
2018-Jul-15 21:00N 33°41' W 118°13'1 1.9
2018-Jul-15 20:30N 33°40' W 118°14'2 3.2
2018-Jul-15 20:00N 33°38' W 118°12'3 6.0
2018-Jul-15 19:30N 33°36' W 118°11'0 0.0
2018-Jul-15 19:00N 33°36' W 118°11'0 0.0
2018-Jul-15 18:30N 33°36' W 118°11'0 0.0
2018-Jul-15 18:00N 33°36' W 118°11'0 0.9
2018-Jul-15 17:31N 33°36' W 118°11'1 1.1
2018-Jul-15 17:00N 33°37' W 118°11'0 0.2
2018-Jul-15 16:30N 33°37' W 118°12'0 0.1
2018-Jul-15 16:00N 33°37' W 118°12'1 1.8
2018-Jul-15 15:30N 33°38' W 118°12'1 1.4
2018-Jul-15 15:00N 33°38' W 118°12'4 7.6
2018-Jul-15 14:30N 33°41' W 118°09'2 4.4
2018-Jul-15 14:00N 33°44' W 118°08'3 6.5
2018-Jul-15 13:30N 33°44' W 118°12'4 0.3
2018-Jul-14 23:07N 33°41' W 118°16'1 9.1
2018-Jul-14 23:00N 33°41' W 118°17'4 8.8
2018-Jul-14 22:30N 33°38' W 118°21'4 8.9
2018-Jul-14 22:01N 33°35' W 118°25'4 8.6
2018-Jul-14 21:30N 33°31' W 118°28'4 8.5
2018-Jul-14 21:01N 33°28' W 118°31'0 0.3
2018-Jul-14 20:30N 33°28' W 118°31'0 0.0
2018-Jul-14 20:00N 33°28' W 118°31'1 1.3
2018-Jul-14 19:30N 33°27' W 118°30'0 0.2
2018-Jul-14 19:00N 33°27' W 118°30'1 1.7
2018-Jul-14 18:30N 33°27' W 118°29'0 0.0
2018-Jul-14 18:01N 33°27' W 118°29'0 0.1
2018-Jul-14 17:30N 33°27' W 118°29'0 0.2
2018-Jul-14 17:00N 33°27' W 118°29'3 5.8
2018-Jul-14 16:30N 33°29' W 118°27'4 8.6
2018-Jul-14 16:00N 33°33' W 118°24'4 8.6
2018-Jul-14 15:30N 33°35' W 118°20'4 8.4
2018-Jul-14 15:00N 33°38' W 118°16'4 8.5
2018-Jul-14 14:30N 33°41' W 118°13'4 3.9
2018-Jul-14 13:30N 33°45' W 118°13'1 2.4
2018-Jul-14 13:00N 33°46' W 118°13'5 0.4
2018-Jul-13 21:58N 33°41' W 118°15'1 2.3
2018-Jul-13 21:30N 33°41' W 118°14'0 0.1
2018-Jul-13 21:00N 33°41' W 118°14'0 0.8
2018-Jul-13 20:30N 33°40' W 118°13'0 0.0
2018-Jul-13 20:00N 33°40' W 118°13'0 0.5
2018-Jul-13 19:31N 33°40' W 118°13'0 0.9
2018-Jul-13 19:00N 33°40' W 118°13'0 0.4
2018-Jul-13 18:30N 33°40' W 118°13'1 1.5
2018-Jul-13 18:00N 33°39' W 118°12'3 5.5
2018-Jul-13 17:30N 33°37' W 118°12'0 0.1
2018-Jul-13 17:00N 33°37' W 118°12'0 0.0
2018-Jul-13 16:30N 33°37' W 118°12'0 0.0
2018-Jul-13 16:00N 33°37' W 118°12'0 0.0
2018-Jul-13 15:29N 33°37' W 118°12'2 3.2
2018-Jul-13 15:00N 33°38' W 118°11'5 5.2
2018-Jul-13 14:00N 33°43' W 118°11'2 3.8
2018-Jul-13 13:30N 33°45' W 118°13'2 3.4
2018-Jul-13 13:00N 33°46' W 118°13'  
Track history (hours):
 
Tides and Currents Weather Stations Pressure Air Temp Water Temp Dewpoint Dewpoint Depression Visibility Wind Speed Wind Dir Waves Ship Positions

Victory

Owner: XENIOS, GEORGE, WILMINGTON, CA. More information available from US FCC via Universal Licensing System and Coast Guard Vessel Documentation Center.

Last reported at 2018-Jul-22 23:10 UTC. Time now 2018-Jul-23 04:16 UTC.
Position N 33°43' W 118°11'.

Length 5 m; draft 2 m.

Type: Passenger vessel. MMSI: 366977270.

Date/timePositionNaut miles runAvg speedWind from/ knotsBaromVisibWave heightAir tempDewpointWater temp
2018-Jul-22 23:10N 33°43' W 118°11'1 7.9
2018-Jul-22 23:00N 33°43' W 118°10'4 7.4
2018-Jul-22 22:30N 33°40' W 118°07'1 1.3
2018-Jul-22 22:00N 33°39' W 118°07'0 0.0
2018-Jul-22 21:30N 33°39' W 118°07'1 1.4
2018-Jul-22 21:00N 33°39' W 118°07'4 7.3
2018-Jul-22 20:30N 33°39' W 118°12'0 0.6
2018-Jul-22 20:00N 33°38' W 118°12'0 0.4
2018-Jul-22 19:30N 33°38' W 118°12'1 2.0
2018-Jul-22 19:00N 33°38' W 118°10'3 4.9
2018-Jul-22 18:30N 33°36' W 118°11'0 0.6
2018-Jul-22 18:00N 33°36' W 118°11'0 0.3
2018-Jul-22 17:30N 33°36' W 118°11'0 0.0
2018-Jul-22 17:00N 33°36' W 118°11'0 0.0
2018-Jul-22 16:30N 33°36' W 118°11'0 0.0
2018-Jul-22 16:00N 33°36' W 118°11'1 1.3
2018-Jul-22 14:59N 33°37' W 118°11'4 7.9
2018-Jul-22 14:30N 33°41' W 118°11'3 5.7
2018-Jul-22 14:00N 33°43' W 118°10'3 0.2
2018-Jul-22 00:14N 33°46' W 118°13'1 3.6
2018-Jul-22 00:00N 33°46' W 118°13'3 6.6
2018-Jul-21 23:30N 33°43' W 118°11'3 5.6
2018-Jul-21 23:00N 33°41' W 118°13'0 0.0
2018-Jul-21 22:30N 33°41' W 118°13'1 2.7
2018-Jul-21 22:00N 33°40' W 118°12'1 1.4
2018-Jul-21 21:30N 33°40' W 118°13'1 1.2
2018-Jul-21 21:00N 33°40' W 118°14'1 2.6
2018-Jul-21 20:30N 33°39' W 118°12'1 1.8
2018-Jul-21 20:00N 33°38' W 118°12'2 3.4
2018-Jul-21 19:30N 33°37' W 118°12'0 0.0
2018-Jul-21 19:00N 33°37' W 118°12'0 0.8
2018-Jul-21 18:30N 33°36' W 118°11'0 0.3
2018-Jul-21 18:00N 33°36' W 118°11'0 0.7
2018-Jul-21 17:29N 33°36' W 118°11'0 0.3
2018-Jul-21 17:00N 33°36' W 118°11'0 0.0
2018-Jul-21 16:30N 33°36' W 118°11'0 0.1
2018-Jul-21 16:00N 33°36' W 118°11'3 5.8
2018-Jul-21 15:30N 33°38' W 118°10'4 8.3
2018-Jul-21 15:00N 33°42' W 118°09'1 2.6
2018-Jul-21 14:30N 33°44' W 118°09'4 4.1
2018-Jul-21 13:30N 33°46' W 118°13'0 0.0
2018-Jul-21 13:00N 33°46' W 118°13'0 0.0
2018-Jul-21 00:43N 33°46' W 118°13'0 0.0
2018-Jul-21 00:30N 33°46' W 118°13'0 0.0
2018-Jul-21 00:00N 33°46' W 118°13'3 5.1
2018-Jul-20 23:30N 33°44' W 118°12'4 7.2
2018-Jul-20 23:00N 33°40' W 118°12'1 1.3
2018-Jul-20 22:30N 33°40' W 118°12'0 0.0
2018-Jul-20 22:00N 33°40' W 118°12'0 0.7
2018-Jul-20 21:30N 33°40' W 118°12'1 1.9
2018-Jul-20 21:00N 33°40' W 118°14'1 1.5
2018-Jul-20 20:30N 33°41' W 118°13'0 0.0
2018-Jul-20 20:00N 33°41' W 118°13'1 1.9
2018-Jul-20 19:30N 33°40' W 118°14'0 0.6
2018-Jul-20 19:00N 33°40' W 118°13'0 0.0
2018-Jul-20 18:30N 33°40' W 118°13'3 6.2
2018-Jul-20 18:00N 33°37' W 118°12'0 0.6
2018-Jul-20 17:30N 33°37' W 118°12'1 2.1
2018-Jul-20 17:01N 33°36' W 118°11'0 0.0
2018-Jul-20 16:30N 33°36' W 118°11'0 0.0
2018-Jul-20 15:59N 33°36' W 118°11'0 0.1
2018-Jul-20 15:30N 33°36' W 118°11'1 1.9
2018-Jul-20 15:00N 33°36' W 118°11'4 8.2
2018-Jul-20 14:30N 33°40' W 118°09'3 6.4
2018-Jul-20 14:00N 33°44' W 118°08'3 5.5
2018-Jul-20 13:30N 33°44' W 118°12'3 5.1
2018-Jul-20 13:00N 33°46' W 118°13'6 0.4
2018-Jul-19 22:01N 33°40' W 118°14'0 6.0
2018-Jul-19 22:00N 33°40' W 118°14'1 1.4
2018-Jul-19 21:30N 33°40' W 118°14'0 0.0
2018-Jul-19 21:00N 33°40' W 118°14'0 0.0
2018-Jul-19 20:30N 33°40' W 118°14'0 0.0
2018-Jul-19 20:00N 33°40' W 118°14'0 0.0
2018-Jul-19 19:30N 33°40' W 118°14'0 0.0
2018-Jul-19 19:00N 33°40' W 118°14'0 0.0
2018-Jul-19 18:30N 33°40' W 118°14'2 5.1
2018-Jul-19 18:00N 33°37' W 118°12'2 4.1
2018-Jul-19 17:30N 33°36' W 118°11'0 0.1
2018-Jul-19 17:00N 33°36' W 118°11'0 0.0
2018-Jul-19 16:30N 33°36' W 118°11'0 0.0
2018-Jul-19 16:00N 33°36' W 118°11'0 0.1
2018-Jul-19 15:30N 33°36' W 118°11'2 4.9
2018-Jul-19 15:00N 33°38' W 118°10'6 5.9
2018-Jul-19 14:00N 33°44' W 118°09'4 8.1
2018-Jul-19 13:30N 33°45' W 118°13'1 2.5
2018-Jul-19 13:00N 33°46' W 118°13'4 0.3
2018-Jul-18 22:59N 33°43' W 118°14'2 5.0
2018-Jul-18 22:30N 33°41' W 118°14'1 1.9
2018-Jul-18 22:01N 33°40' W 118°14'0 0.0
2018-Jul-18 21:31N 33°40' W 118°14'0 0.0
2018-Jul-18 21:00N 33°40' W 118°14'0 0.0
2018-Jul-18 20:30N 33°40' W 118°14'0 0.0
2018-Jul-18 20:00N 33°40' W 118°14'0 0.3
2018-Jul-18 19:31N 33°40' W 118°14'1 2.7
2018-Jul-18 19:00N 33°39' W 118°12'0 0.0
2018-Jul-18 18:30N 33°39' W 118°12'1 2.4
2018-Jul-18 18:00N 33°38' W 118°12'0 0.1
2018-Jul-18 17:30N 33°38' W 118°12'3 5.6
2018-Jul-18 17:01N 33°36' W 118°11'0 0.0
2018-Jul-18 16:30N 33°36' W 118°11'0 0.0
2018-Jul-18 16:00N 33°36' W 118°11'0 0.1
2018-Jul-18 15:30N 33°36' W 118°11'2 4.4
2018-Jul-18 15:00N 33°38' W 118°10'4 8.8
2018-Jul-18 14:30N 33°42' W 118°11'4 3.7
2018-Jul-18 13:30N 33°45' W 118°13'2 0.1
2018-Jul-17 22:42N 33°44' W 118°13'1 6.6
2018-Jul-17 22:30N 33°43' W 118°15'2 4.9
2018-Jul-17 22:00N 33°40' W 118°15'0 0.0
2018-Jul-17 21:30N 33°40' W 118°15'1 2.3
2018-Jul-17 20:59N 33°41' W 118°14'1 2.0
2018-Jul-17 20:30N 33°40' W 118°14'0 0.0
2018-Jul-17 19:59N 33°40' W 118°14'0 0.0
2018-Jul-17 19:30N 33°40' W 118°14'0 0.0
2018-Jul-17 19:00N 33°40' W 118°14'0 0.0
2018-Jul-17 18:30N 33°40' W 118°14'3 6.3
2018-Jul-17 18:00N 33°37' W 118°12'1 2.9
2018-Jul-17 17:30N 33°36' W 118°11'0 0.0
2018-Jul-17 17:00N 33°36' W 118°11'0 0.0
2018-Jul-17 16:29N 33°36' W 118°11'0 0.1
2018-Jul-17 16:00N 33°36' W 118°11'0 0.1
2018-Jul-17 15:30N 33°36' W 118°11'2 4.1
2018-Jul-17 15:00N 33°37' W 118°10'4 8.8
2018-Jul-17 14:30N 33°42' W 118°09'2 4.1
2018-Jul-17 14:00N 33°44' W 118°08'4 7.7
2018-Jul-17 13:30N 33°45' W 118°13'3 0.2
2018-Jul-16 23:30N 33°42' W 118°14'3 5.1
2018-Jul-16 23:01N 33°40' W 118°14'0 0.0
2018-Jul-16 22:30N 33°40' W 118°14'0 0.0
2018-Jul-16 22:00N 33°40' W 118°14'0 0.0
2018-Jul-16 21:26N 33°40' W 118°14'0 0.1
2018-Jul-16 21:00N 33°40' W 118°14'2 4.3
2018-Jul-16 20:30N 33°38' W 118°12'2 3.9
2018-Jul-16 20:00N 33°37' W 118°10'2 3.7
2018-Jul-16 19:30N 33°36' W 118°08'2 4.6
2018-Jul-16 19:00N 33°36' W 118°11'0 0.0
2018-Jul-16 18:30N 33°36' W 118°11'0 0.0
2018-Jul-16 18:00N 33°36' W 118°11'0 0.0
2018-Jul-16 17:30N 33°36' W 118°11'0 0.0
2018-Jul-16 17:00N 33°36' W 118°11'1 1.5
2018-Jul-16 16:30N 33°36' W 118°11'2 3.8
2018-Jul-16 16:00N 33°38' W 118°12'0 0.0
2018-Jul-16 15:30N 33°38' W 118°12'2 3.5
2018-Jul-16 15:00N 33°39' W 118°10'4 8.2
2018-Jul-16 14:30N 33°43' W 118°08'2 3.5
2018-Jul-16 14:00N 33°44' W 118°10'3 0.2
2018-Jul-15 23:50N 33°46' W 118°13'6 3.8
2018-Jul-15 22:22N 33°40' W 118°13'0 0.3
2018-Jul-15 22:00N 33°40' W 118°13'1 1.1
2018-Jul-15 21:30N 33°41' W 118°13'0 0.0
2018-Jul-15 21:00N 33°41' W 118°13'1 1.9
2018-Jul-15 20:30N 33°40' W 118°14'2 3.2
2018-Jul-15 20:00N 33°38' W 118°12'3 6.0
2018-Jul-15 19:30N 33°36' W 118°11'0 0.0
2018-Jul-15 19:00N 33°36' W 118°11'0 0.0
2018-Jul-15 18:30N 33°36' W 118°11'0 0.0
2018-Jul-15 18:00N 33°36' W 118°11'0 0.9
2018-Jul-15 17:31N 33°36' W 118°11'1 1.1
2018-Jul-15 17:00N 33°37' W 118°11'0 0.2
2018-Jul-15 16:30N 33°37' W 118°12'0 0.1
2018-Jul-15 16:00N 33°37' W 118°12'1 1.8
2018-Jul-15 15:30N 33°38' W 118°12'1 1.4
2018-Jul-15 15:00N 33°38' W 118°12'4 7.6
2018-Jul-15 14:30N 33°41' W 118°09'2 4.4
2018-Jul-15 14:00N 33°44' W 118°08'3 6.5
2018-Jul-15 13:30N 33°44' W 118°12'4 0.3
2018-Jul-14 23:07N 33°41' W 118°16'1 9.1
2018-Jul-14 23:00N 33°41' W 118°17'4 8.8
2018-Jul-14 22:30N 33°38' W 118°21'4 8.9
2018-Jul-14 22:01N 33°35' W 118°25'4 8.6
2018-Jul-14 21:30N 33°31' W 118°28'4 8.5
2018-Jul-14 21:01N 33°28' W 118°31'0 0.3
2018-Jul-14 20:30N 33°28' W 118°31'0 0.0
2018-Jul-14 20:00N 33°28' W 118°31'1 1.3
2018-Jul-14 19:30N 33°27' W 118°30'0 0.2
2018-Jul-14 19:00N 33°27' W 118°30'1 1.7
2018-Jul-14 18:30N 33°27' W 118°29'0 0.0
2018-Jul-14 18:01N 33°27' W 118°29'0 0.1
2018-Jul-14 17:30N 33°27' W 118°29'0 0.2
2018-Jul-14 17:00N 33°27' W 118°29'3 5.8
2018-Jul-14 16:30N 33°29' W 118°27'4 8.6
2018-Jul-14 16:00N 33°33' W 118°24'4 8.6
2018-Jul-14 15:30N 33°35' W 118°20'4 8.4
2018-Jul-14 15:00N 33°38' W 118°16'4 8.5
2018-Jul-14 14:30N 33°41' W 118°13'4 3.9
2018-Jul-14 13:30N 33°45' W 118°13'1 2.4
2018-Jul-14 13:00N 33°46' W 118°13'5 0.4
2018-Jul-13 21:58N 33°41' W 118°15'1 2.3
2018-Jul-13 21:30N 33°41' W 118°14'0 0.1
2018-Jul-13 21:00N 33°41' W 118°14'0 0.8
2018-Jul-13 20:30N 33°40' W 118°13'0 0.0
2018-Jul-13 20:00N 33°40' W 118°13'0 0.5
2018-Jul-13 19:31N 33°40' W 118°13'0 0.9
2018-Jul-13 19:00N 33°40' W 118°13'0 0.4
2018-Jul-13 18:30N 33°40' W 118°13'1 1.5
2018-Jul-13 18:00N 33°39' W 118°12'3 5.5
2018-Jul-13 17:30N 33°37' W 118°12'0 0.1
2018-Jul-13 17:00N 33°37' W 118°12'0 0.0
2018-Jul-13 16:30N 33°37' W 118°12'0 0.0
2018-Jul-13 16:00N 33°37' W 118°12'0 0.0
2018-Jul-13 15:29N 33°37' W 118°12'2 3.2
2018-Jul-13 15:00N 33°38' W 118°11'5 5.2
2018-Jul-13 14:00N 33°43' W 118°11'2 3.8
2018-Jul-13 13:30N 33°45' W 118°13'2 3.4
2018-Jul-13 13:00N 33°46' W 118°13'  

Dump ship's entire track history